sensor_id;sensor_type;location;lat;lon;timestamp;P1;durP1;ratioP1;P2;durP2;ratioP2
44139;SDS011;29803;51.048;4.686;2023-06-14T00:00:07;13.13;;;7.30;;
44139;SDS011;29803;51.048;4.686;2023-06-14T00:02:39;11.27;;;7.03;;
44139;SDS011;29803;51.048;4.686;2023-06-14T00:05:09;18.23;;;7.85;;
44139;SDS011;29803;51.048;4.686;2023-06-14T00:07:42;10.63;;;7.18;;
44139;SDS011;29803;51.048;4.686;2023-06-14T00:10:12;12.00;;;6.50;;
44139;SDS011;29803;51.048;4.686;2023-06-14T00:12:43;9.70;;;6.53;;
44139;SDS011;29803;51.048;4.686;2023-06-14T00:15:13;10.10;;;6.28;;
44139;SDS011;29803;51.048;4.686;2023-06-14T00:17:44;10.98;;;6.22;;
44139;SDS011;29803;51.048;4.686;2023-06-14T00:20:17;16.50;;;7.07;;
44139;SDS011;29803;51.048;4.686;2023-06-14T00:22:48;12.13;;;6.47;;
44139;SDS011;29803;51.048;4.686;2023-06-14T00:25:19;11.68;;;7.20;;
44139;SDS011;29803;51.048;4.686;2023-06-14T00:27:49;14.55;;;6.63;;
44139;SDS011;29803;51.048;4.686;2023-06-14T00:30:20;9.60;;;6.85;;
44139;SDS011;29803;51.048;4.686;2023-06-14T00:32:51;10.77;;;6.95;;
44139;SDS011;29803;51.048;4.686;2023-06-14T00:35:21;11.68;;;6.65;;
44139;SDS011;29803;51.048;4.686;2023-06-14T00:37:52;16.38;;;7.35;;
44139;SDS011;29803;51.048;4.686;2023-06-14T00:40:24;14.70;;;7.82;;
44139;SDS011;29803;51.048;4.686;2023-06-14T00:42:55;14.73;;;7.22;;
44139;SDS011;29803;51.048;4.686;2023-06-14T00:45:25;13.20;;;7.22;;
44139;SDS011;29803;51.048;4.686;2023-06-14T00:47:56;13.90;;;6.45;;
44139;SDS011;29803;51.048;4.686;2023-06-14T00:50:26;11.95;;;7.70;;
44139;SDS011;29803;51.048;4.686;2023-06-14T00:52:57;15.40;;;8.07;;
44139;SDS011;29803;51.048;4.686;2023-06-14T00:55:28;12.70;;;8.50;;
44139;SDS011;29803;51.048;4.686;2023-06-14T00:57:58;14.20;;;8.55;;
44139;SDS011;29803;51.048;4.686;2023-06-14T01:00:29;17.80;;;8.90;;
44139;SDS011;29803;51.048;4.686;2023-06-14T01:03:00;16.88;;;8.90;;
44139;SDS011;29803;51.048;4.686;2023-06-14T01:05:31;13.82;;;8.75;;
44139;SDS011;29803;51.048;4.686;2023-06-14T01:11:12;14.57;;;7.93;;
44139;SDS011;29803;51.048;4.686;2023-06-14T01:13:46;14.32;;;8.20;;
44139;SDS011;29803;51.048;4.686;2023-06-14T01:16:19;11.27;;;7.80;;
44139;SDS011;29803;51.048;4.686;2023-06-14T01:18:51;13.32;;;8.70;;
44139;SDS011;29803;51.048;4.686;2023-06-14T01:21:23;16.40;;;9.18;;
44139;SDS011;29803;51.048;4.686;2023-06-14T01:24:14;13.68;;;7.60;;
44139;SDS011;29803;51.048;4.686;2023-06-14T01:26:44;15.13;;;8.13;;
44139;SDS011;29803;51.048;4.686;2023-06-14T01:29:16;16.40;;;8.45;;
44139;SDS011;29803;51.048;4.686;2023-06-14T01:31:47;13.70;;;8.15;;
44139;SDS011;29803;51.048;4.686;2023-06-14T01:34:20;22.58;;;9.40;;
44139;SDS011;29803;51.048;4.686;2023-06-14T01:36:50;13.88;;;8.05;;
44139;SDS011;29803;51.048;4.686;2023-06-14T01:39:24;10.80;;;7.80;;
44139;SDS011;29803;51.048;4.686;2023-06-14T01:41:56;13.25;;;8.73;;
44139;SDS011;29803;51.048;4.686;2023-06-14T01:44:28;12.70;;;7.93;;
44139;SDS011;29803;51.048;4.686;2023-06-14T01:46:59;17.08;;;9.75;;
44139;SDS011;29803;51.048;4.686;2023-06-14T01:49:32;15.90;;;9.35;;
44139;SDS011;29803;51.048;4.686;2023-06-14T01:52:04;18.70;;;8.20;;
44139;SDS011;29803;51.048;4.686;2023-06-14T01:54:36;13.45;;;8.35;;
44139;SDS011;29803;51.048;4.686;2023-06-14T01:57:18;15.48;;;9.30;;
44139;SDS011;29803;51.048;4.686;2023-06-14T01:59:56;16.10;;;9.65;;
44139;SDS011;29803;51.048;4.686;2023-06-14T02:02:26;18.27;;;9.27;;
44139;SDS011;29803;51.048;4.686;2023-06-14T02:04:57;16.77;;;9.60;;
44139;SDS011;29803;51.048;4.686;2023-06-14T02:07:27;13.55;;;8.90;;
44139;SDS011;29803;51.048;4.686;2023-06-14T02:09:58;13.82;;;8.57;;
44139;SDS011;29803;51.048;4.686;2023-06-14T02:12:29;16.00;;;8.68;;
44139;SDS011;29803;51.048;4.686;2023-06-14T02:15:00;17.45;;;8.88;;
44139;SDS011;29803;51.048;4.686;2023-06-14T02:17:31;17.17;;;9.77;;
44139;SDS011;29803;51.048;4.686;2023-06-14T02:20:01;15.63;;;9.50;;
44139;SDS011;29803;51.048;4.686;2023-06-14T02:22:34;16.02;;;9.23;;
44139;SDS011;29803;51.048;4.686;2023-06-14T02:25:04;16.10;;;9.40;;
44139;SDS011;29803;51.048;4.686;2023-06-14T02:27:36;19.65;;;10.65;;
44139;SDS011;29803;51.048;4.686;2023-06-14T02:30:07;16.02;;;10.48;;
44139;SDS011;29803;51.048;4.686;2023-06-14T02:32:38;13.05;;;8.52;;
44139;SDS011;29803;51.048;4.686;2023-06-14T02:35:08;15.52;;;10.02;;
44139;SDS011;29803;51.048;4.686;2023-06-14T02:37:39;13.80;;;8.90;;
44139;SDS011;29803;51.048;4.686;2023-06-14T02:40:10;15.77;;;9.65;;
44139;SDS011;29803;51.048;4.686;2023-06-14T02:42:41;20.77;;;10.23;;
44139;SDS011;29803;51.048;4.686;2023-06-14T02:45:11;15.48;;;9.73;;
44139;SDS011;29803;51.048;4.686;2023-06-14T02:47:42;22.50;;;9.27;;
44139;SDS011;29803;51.048;4.686;2023-06-14T02:50:12;15.10;;;8.63;;
44139;SDS011;29803;51.048;4.686;2023-06-14T02:52:43;15.35;;;9.35;;
44139;SDS011;29803;51.048;4.686;2023-06-14T02:55:14;15.82;;;9.55;;
44139;SDS011;29803;51.048;4.686;2023-06-14T02:57:45;14.63;;;9.73;;
44139;SDS011;29803;51.048;4.686;2023-06-14T03:00:17;18.00;;;9.20;;
44139;SDS011;29803;51.048;4.686;2023-06-14T03:02:49;19.38;;;8.90;;
44139;SDS011;29803;51.048;4.686;2023-06-14T03:05:21;14.05;;;9.15;;
44139;SDS011;29803;51.048;4.686;2023-06-14T03:07:52;20.35;;;10.23;;
44139;SDS011;29803;51.048;4.686;2023-06-14T03:10:24;14.45;;;9.23;;
44139;SDS011;29803;51.048;4.686;2023-06-14T03:12:58;16.10;;;9.55;;
44139;SDS011;29803;51.048;4.686;2023-06-14T03:15:29;16.90;;;9.20;;
44139;SDS011;29803;51.048;4.686;2023-06-14T03:17:59;14.63;;;8.43;;
44139;SDS011;29803;51.048;4.686;2023-06-14T03:20:30;15.23;;;9.27;;
44139;SDS011;29803;51.048;4.686;2023-06-14T03:23:03;17.08;;;8.98;;
44139;SDS011;29803;51.048;4.686;2023-06-14T03:25:34;19.00;;;9.00;;
44139;SDS011;29803;51.048;4.686;2023-06-14T03:28:08;17.15;;;8.57;;
44139;SDS011;29803;51.048;4.686;2023-06-14T03:30:38;16.90;;;8.38;;
44139;SDS011;29803;51.048;4.686;2023-06-14T03:33:09;17.10;;;8.52;;
44139;SDS011;29803;51.048;4.686;2023-06-14T03:35:40;15.32;;;9.13;;
44139;SDS011;29803;51.048;4.686;2023-06-14T03:38:11;13.25;;;8.25;;
44139;SDS011;29803;51.048;4.686;2023-06-14T03:40:42;17.80;;;8.57;;
44139;SDS011;29803;51.048;4.686;2023-06-14T03:43:14;17.20;;;8.18;;
44139;SDS011;29803;51.048;4.686;2023-06-14T03:45:45;24.52;;;9.23;;
44139;SDS011;29803;51.048;4.686;2023-06-14T03:48:15;18.83;;;8.45;;
44139;SDS011;29803;51.048;4.686;2023-06-14T03:50:46;24.27;;;9.18;;
44139;SDS011;29803;51.048;4.686;2023-06-14T03:53:17;16.13;;;8.07;;
44139;SDS011;29803;51.048;4.686;2023-06-14T03:55:50;18.67;;;8.00;;
44139;SDS011;29803;51.048;4.686;2023-06-14T03:58:36;16.48;;;8.63;;
44139;SDS011;29803;51.048;4.686;2023-06-14T04:01:07;17.67;;;7.60;;
44139;SDS011;29803;51.048;4.686;2023-06-14T04:03:37;16.95;;;8.20;;
44139;SDS011;29803;51.048;4.686;2023-06-14T04:06:10;15.15;;;7.78;;
44139;SDS011;29803;51.048;4.686;2023-06-14T04:08:40;16.60;;;8.18;;
44139;SDS011;29803;51.048;4.686;2023-06-14T04:11:11;17.35;;;7.85;;
44139;SDS011;29803;51.048;4.686;2023-06-14T04:13:42;12.43;;;7.10;;
44139;SDS011;29803;51.048;4.686;2023-06-14T04:16:12;10.65;;;7.30;;
44139;SDS011;29803;51.048;4.686;2023-06-14T04:18:43;14.15;;;7.40;;
44139;SDS011;29803;51.048;4.686;2023-06-14T04:21:14;14.38;;;8.13;;
44139;SDS011;29803;51.048;4.686;2023-06-14T04:23:44;17.95;;;7.85;;
44139;SDS011;29803;51.048;4.686;2023-06-14T04:26:15;15.15;;;7.75;;
44139;SDS011;29803;51.048;4.686;2023-06-14T04:28:46;16.80;;;7.80;;
44139;SDS011;29803;51.048;4.686;2023-06-14T04:31:17;17.40;;;8.05;;
44139;SDS011;29803;51.048;4.686;2023-06-14T04:33:48;14.48;;;7.78;;
44139;SDS011;29803;51.048;4.686;2023-06-14T04:36:21;15.68;;;8.45;;
44139;SDS011;29803;51.048;4.686;2023-06-14T04:38:52;24.65;;;7.88;;
44139;SDS011;29803;51.048;4.686;2023-06-14T04:41:24;25.30;;;9.30;;
44139;SDS011;29803;51.048;4.686;2023-06-14T04:44:00;20.27;;;8.68;;
44139;SDS011;29803;51.048;4.686;2023-06-14T04:46:32;19.98;;;8.35;;
44139;SDS011;29803;51.048;4.686;2023-06-14T04:49:02;21.75;;;7.93;;
44139;SDS011;29803;51.048;4.686;2023-06-14T04:51:33;20.83;;;9.05;;
44139;SDS011;29803;51.048;4.686;2023-06-14T04:54:04;17.38;;;8.05;;
44139;SDS011;29803;51.048;4.686;2023-06-14T04:56:35;19.08;;;8.48;;
44139;SDS011;29803;51.048;4.686;2023-06-14T04:59:07;15.45;;;7.75;;
44139;SDS011;29803;51.048;4.686;2023-06-14T05:01:38;18.48;;;7.95;;
44139;SDS011;29803;51.048;4.686;2023-06-14T05:04:08;14.85;;;8.05;;
44139;SDS011;29803;51.048;4.686;2023-06-14T05:06:39;18.35;;;7.57;;
44139;SDS011;29803;51.048;4.686;2023-06-14T05:09:09;18.70;;;8.95;;
44139;SDS011;29803;51.048;4.686;2023-06-14T05:11:40;16.00;;;8.85;;
44139;SDS011;29803;51.048;4.686;2023-06-14T05:14:14;18.20;;;9.05;;
44139;SDS011;29803;51.048;4.686;2023-06-14T05:16:44;12.95;;;8.00;;
44139;SDS011;29803;51.048;4.686;2023-06-14T05:19:15;13.80;;;8.70;;
44139;SDS011;29803;51.048;4.686;2023-06-14T05:21:48;17.83;;;8.52;;
44139;SDS011;29803;51.048;4.686;2023-06-14T05:24:18;17.52;;;8.45;;
44139;SDS011;29803;51.048;4.686;2023-06-14T05:26:49;22.00;;;9.57;;
44139;SDS011;29803;51.048;4.686;2023-06-14T05:29:20;16.75;;;8.82;;
44139;SDS011;29803;51.048;4.686;2023-06-14T05:31:50;15.80;;;9.07;;
44139;SDS011;29803;51.048;4.686;2023-06-14T05:34:21;18.02;;;8.52;;
44139;SDS011;29803;51.048;4.686;2023-06-14T05:36:51;16.30;;;8.77;;
44139;SDS011;29803;51.048;4.686;2023-06-14T05:39:22;17.75;;;8.73;;
44139;SDS011;29803;51.048;4.686;2023-06-14T05:41:54;16.92;;;8.68;;
44139;SDS011;29803;51.048;4.686;2023-06-14T05:44:25;22.08;;;9.48;;
44139;SDS011;29803;51.048;4.686;2023-06-14T05:46:55;21.35;;;9.48;;
44139;SDS011;29803;51.048;4.686;2023-06-14T05:49:26;20.85;;;8.05;;
44139;SDS011;29803;51.048;4.686;2023-06-14T05:51:56;28.35;;;9.13;;
44139;SDS011;29803;51.048;4.686;2023-06-14T05:54:27;23.05;;;9.55;;
44139;SDS011;29803;51.048;4.686;2023-06-14T05:56:57;17.70;;;9.27;;
44139;SDS011;29803;51.048;4.686;2023-06-14T05:59:43;18.02;;;8.30;;
44139;SDS011;29803;51.048;4.686;2023-06-14T06:02:13;18.17;;;9.10;;
44139;SDS011;29803;51.048;4.686;2023-06-14T06:04:44;20.02;;;9.10;;
44139;SDS011;29803;51.048;4.686;2023-06-14T06:07:15;17.55;;;8.95;;
44139;SDS011;29803;51.048;4.686;2023-06-14T06:09:46;16.55;;;7.95;;
44139;SDS011;29803;51.048;4.686;2023-06-14T06:12:16;16.70;;;8.10;;
44139;SDS011;29803;51.048;4.686;2023-06-14T06:14:47;16.55;;;8.60;;
44139;SDS011;29803;51.048;4.686;2023-06-14T06:17:17;17.23;;;8.60;;
44139;SDS011;29803;51.048;4.686;2023-06-14T06:19:48;12.68;;;8.15;;
44139;SDS011;29803;51.048;4.686;2023-06-14T06:22:18;16.23;;;8.15;;
44139;SDS011;29803;51.048;4.686;2023-06-14T06:24:49;16.73;;;8.70;;
44139;SDS011;29803;51.048;4.686;2023-06-14T06:27:19;11.93;;;7.80;;
44139;SDS011;29803;51.048;4.686;2023-06-14T06:29:50;13.50;;;7.75;;
44139;SDS011;29803;51.048;4.686;2023-06-14T06:32:21;14.23;;;8.10;;
44139;SDS011;29803;51.048;4.686;2023-06-14T06:34:52;14.55;;;7.75;;
44139;SDS011;29803;51.048;4.686;2023-06-14T06:37:22;15.05;;;7.68;;
44139;SDS011;29803;51.048;4.686;2023-06-14T06:39:53;13.80;;;7.35;;
44139;SDS011;29803;51.048;4.686;2023-06-14T06:42:23;13.95;;;7.63;;
44139;SDS011;29803;51.048;4.686;2023-06-14T06:44:54;16.20;;;8.25;;
44139;SDS011;29803;51.048;4.686;2023-06-14T06:47:25;12.75;;;8.18;;
44139;SDS011;29803;51.048;4.686;2023-06-14T06:49:55;12.27;;;6.85;;
44139;SDS011;29803;51.048;4.686;2023-06-14T06:52:26;16.40;;;7.68;;
44139;SDS011;29803;51.048;4.686;2023-06-14T06:54:56;12.38;;;7.25;;
44139;SDS011;29803;51.048;4.686;2023-06-14T06:57:27;12.27;;;6.70;;
44139;SDS011;29803;51.048;4.686;2023-06-14T06:59:59;14.98;;;7.65;;
44139;SDS011;29803;51.048;4.686;2023-06-14T07:02:30;14.45;;;7.35;;
44139;SDS011;29803;51.048;4.686;2023-06-14T07:05:01;13.68;;;7.80;;
44139;SDS011;29803;51.048;4.686;2023-06-14T07:07:31;13.52;;;7.30;;
44139;SDS011;29803;51.048;4.686;2023-06-14T07:10:02;14.13;;;7.45;;
44139;SDS011;29803;51.048;4.686;2023-06-14T07:12:34;11.88;;;7.63;;
44139;SDS011;29803;51.048;4.686;2023-06-14T07:15:09;18.90;;;7.68;;
44139;SDS011;29803;51.048;4.686;2023-06-14T07:17:40;11.40;;;6.75;;
44139;SDS011;29803;51.048;4.686;2023-06-14T07:20:11;10.07;;;5.97;;
44139;SDS011;29803;51.048;4.686;2023-06-14T07:22:42;13.43;;;7.43;;
44139;SDS011;29803;51.048;4.686;2023-06-14T07:25:13;12.68;;;6.75;;
44139;SDS011;29803;51.048;4.686;2023-06-14T07:27:44;19.15;;;7.57;;
44139;SDS011;29803;51.048;4.686;2023-06-14T07:30:16;16.77;;;7.13;;
44139;SDS011;29803;51.048;4.686;2023-06-14T07:32:46;10.45;;;6.72;;
44139;SDS011;29803;51.048;4.686;2023-06-14T07:35:16;11.70;;;7.03;;
44139;SDS011;29803;51.048;4.686;2023-06-14T07:37:47;13.77;;;6.93;;
44139;SDS011;29803;51.048;4.686;2023-06-14T07:40:18;14.90;;;7.72;;
44139;SDS011;29803;51.048;4.686;2023-06-14T07:42:48;9.10;;;5.82;;
44139;SDS011;29803;51.048;4.686;2023-06-14T07:45:20;13.55;;;6.95;;
44139;SDS011;29803;51.048;4.686;2023-06-14T07:47:51;12.70;;;7.28;;
44139;SDS011;29803;51.048;4.686;2023-06-14T07:50:22;11.95;;;7.40;;
44139;SDS011;29803;51.048;4.686;2023-06-14T07:52:52;12.23;;;7.53;;
44139;SDS011;29803;51.048;4.686;2023-06-14T07:55:22;12.13;;;7.20;;
44139;SDS011;29803;51.048;4.686;2023-06-14T07:57:55;12.35;;;8.15;;
44139;SDS011;29803;51.048;4.686;2023-06-14T08:00:25;14.90;;;7.35;;
44139;SDS011;29803;51.048;4.686;2023-06-14T08:02:56;13.88;;;7.22;;
44139;SDS011;29803;51.048;4.686;2023-06-14T08:05:29;14.23;;;7.45;;
44139;SDS011;29803;51.048;4.686;2023-06-14T08:07:59;18.25;;;8.20;;
44139;SDS011;29803;51.048;4.686;2023-06-14T08:10:30;17.77;;;7.70;;
44139;SDS011;29803;51.048;4.686;2023-06-14T08:13:01;14.00;;;6.47;;
44139;SDS011;29803;51.048;4.686;2023-06-14T08:15:32;13.50;;;6.65;;
44139;SDS011;29803;51.048;4.686;2023-06-14T08:18:03;11.63;;;6.90;;
44139;SDS011;29803;51.048;4.686;2023-06-14T08:20:33;12.23;;;6.32;;
44139;SDS011;29803;51.048;4.686;2023-06-14T08:23:05;14.23;;;6.68;;
44139;SDS011;29803;51.048;4.686;2023-06-14T08:25:35;9.77;;;7.18;;
44139;SDS011;29803;51.048;4.686;2023-06-14T08:28:06;12.70;;;6.47;;
44139;SDS011;29803;51.048;4.686;2023-06-14T08:30:36;10.20;;;5.88;;
44139;SDS011;29803;51.048;4.686;2023-06-14T08:33:07;13.45;;;6.05;;
44139;SDS011;29803;51.048;4.686;2023-06-14T08:35:38;9.35;;;5.90;;
44139;SDS011;29803;51.048;4.686;2023-06-14T08:38:10;11.63;;;6.63;;
44139;SDS011;29803;51.048;4.686;2023-06-14T08:40:41;17.77;;;6.50;;
44139;SDS011;29803;51.048;4.686;2023-06-14T08:43:12;17.67;;;7.30;;
44139;SDS011;29803;51.048;4.686;2023-06-14T08:45:42;12.68;;;6.10;;
44139;SDS011;29803;51.048;4.686;2023-06-14T08:48:15;13.55;;;6.50;;
44139;SDS011;29803;51.048;4.686;2023-06-14T08:50:47;12.07;;;6.10;;
44139;SDS011;29803;51.048;4.686;2023-06-14T08:53:18;16.98;;;7.30;;
44139;SDS011;29803;51.048;4.686;2023-06-14T08:55:49;12.43;;;6.03;;
44139;SDS011;29803;51.048;4.686;2023-06-14T08:58:20;9.43;;;5.78;;
44139;SDS011;29803;51.048;4.686;2023-06-14T09:00:54;9.67;;;5.40;;
44139;SDS011;29803;51.048;4.686;2023-06-14T09:03:26;17.55;;;6.00;;
44139;SDS011;29803;51.048;4.686;2023-06-14T09:05:59;13.63;;;6.33;;
44139;SDS011;29803;51.048;4.686;2023-06-14T09:08:31;10.75;;;5.35;;
44139;SDS011;29803;51.048;4.686;2023-06-14T09:11:01;10.27;;;6.13;;
44139;SDS011;29803;51.048;4.686;2023-06-14T09:13:32;13.05;;;5.53;;
44139;SDS011;29803;51.048;4.686;2023-06-14T09:16:02;18.48;;;6.90;;
44139;SDS011;29803;51.048;4.686;2023-06-14T09:18:34;14.48;;;6.30;;
44139;SDS011;29803;51.048;4.686;2023-06-14T09:21:07;12.00;;;5.70;;
44139;SDS011;29803;51.048;4.686;2023-06-14T09:23:38;11.68;;;5.68;;
44139;SDS011;29803;51.048;4.686;2023-06-14T09:26:12;13.68;;;5.55;;
44139;SDS011;29803;51.048;4.686;2023-06-14T09:28:44;12.65;;;5.18;;
44139;SDS011;29803;51.048;4.686;2023-06-14T09:31:16;9.93;;;4.95;;
44139;SDS011;29803;51.048;4.686;2023-06-14T09:33:49;8.25;;;4.93;;
44139;SDS011;29803;51.048;4.686;2023-06-14T09:36:22;15.63;;;5.60;;
44139;SDS011;29803;51.048;4.686;2023-06-14T09:38:53;12.40;;;5.10;;
44139;SDS011;29803;51.048;4.686;2023-06-14T09:41:30;15.77;;;5.13;;
44139;SDS011;29803;51.048;4.686;2023-06-14T09:44:03;10.77;;;4.35;;
44139;SDS011;29803;51.048;4.686;2023-06-14T09:46:35;11.00;;;4.95;;
44139;SDS011;29803;51.048;4.686;2023-06-14T09:49:08;10.07;;;5.03;;
44139;SDS011;29803;51.048;4.686;2023-06-14T09:51:42;12.38;;;4.47;;
44139;SDS011;29803;51.048;4.686;2023-06-14T09:54:15;12.82;;;4.40;;
44139;SDS011;29803;51.048;4.686;2023-06-14T09:56:47;13.48;;;5.35;;
44139;SDS011;29803;51.048;4.686;2023-06-14T09:59:21;13.57;;;5.03;;
44139;SDS011;29803;51.048;4.686;2023-06-14T10:01:59;12.40;;;5.20;;
44139;SDS011;29803;51.048;4.686;2023-06-14T10:04:35;11.35;;;4.80;;
44139;SDS011;29803;51.048;4.686;2023-06-14T10:07:06;19.35;;;4.70;;
44139;SDS011;29803;51.048;4.686;2023-06-14T10:09:37;9.68;;;3.88;;
44139;SDS011;29803;51.048;4.686;2023-06-14T10:12:09;8.18;;;4.38;;
44139;SDS011;29803;51.048;4.686;2023-06-14T10:14:40;7.70;;;4.32;;
44139;SDS011;29803;51.048;4.686;2023-06-14T10:17:12;9.05;;;4.10;;
44139;SDS011;29803;51.048;4.686;2023-06-14T10:22:58;9.77;;;4.15;;
44139;SDS011;29803;51.048;4.686;2023-06-14T10:25:33;9.75;;;4.30;;
44139;SDS011;29803;51.048;4.686;2023-06-14T10:31:06;9.35;;;4.05;;
44139;SDS011;29803;51.048;4.686;2023-06-14T10:36:25;11.75;;;4.13;;
44139;SDS011;29803;51.048;4.686;2023-06-14T10:47:08;8.82;;;3.58;;
44139;SDS011;29803;51.048;4.686;2023-06-14T10:50:03;10.50;;;3.65;;
44139;SDS011;29803;51.048;4.686;2023-06-14T10:55:22;10.38;;;4.40;;
44139;SDS011;29803;51.048;4.686;2023-06-14T10:57:53;9.25;;;3.97;;
44139;SDS011;29803;51.048;4.686;2023-06-14T11:00:28;8.07;;;4.07;;
44139;SDS011;29803;51.048;4.686;2023-06-14T11:05:52;7.85;;;3.53;;
44139;SDS011;29803;51.048;4.686;2023-06-14T11:11:07;6.43;;;3.97;;
44139;SDS011;29803;51.048;4.686;2023-06-14T11:13:38;11.65;;;3.90;;
44139;SDS011;29803;51.048;4.686;2023-06-14T11:16:12;13.38;;;3.85;;
44139;SDS011;29803;51.048;4.686;2023-06-14T11:18:44;10.43;;;4.03;;
44139;SDS011;29803;51.048;4.686;2023-06-14T11:21:16;6.80;;;3.80;;
44139;SDS011;29803;51.048;4.686;2023-06-14T11:23:49;10.25;;;4.00;;
44139;SDS011;29803;51.048;4.686;2023-06-14T11:29:10;11.30;;;3.90;;
44139;SDS011;29803;51.048;4.686;2023-06-14T11:31:42;5.88;;;4.10;;
44139;SDS011;29803;51.048;4.686;2023-06-14T11:34:15;12.85;;;4.13;;
44139;SDS011;29803;51.048;4.686;2023-06-14T11:36:45;7.88;;;3.90;;
44139;SDS011;29803;51.048;4.686;2023-06-14T11:39:17;9.32;;;3.45;;
44139;SDS011;29803;51.048;4.686;2023-06-14T11:41:54;9.18;;;3.83;;
44139;SDS011;29803;51.048;4.686;2023-06-14T11:44:25;12.35;;;3.88;;
44139;SDS011;29803;51.048;4.686;2023-06-14T11:46:56;7.57;;;3.78;;
44139;SDS011;29803;51.048;4.686;2023-06-14T11:49:27;10.27;;;3.55;;
44139;SDS011;29803;51.048;4.686;2023-06-14T11:51:58;13.10;;;4.38;;
44139;SDS011;29803;51.048;4.686;2023-06-14T11:54:28;8.02;;;4.20;;
44139;SDS011;29803;51.048;4.686;2023-06-14T11:56:59;7.05;;;3.13;;
44139;SDS011;29803;51.048;4.686;2023-06-14T11:59:29;9.40;;;3.55;;
44139;SDS011;29803;51.048;4.686;2023-06-14T12:02:02;5.82;;;3.20;;
44139;SDS011;29803;51.048;4.686;2023-06-14T12:04:33;5.72;;;3.00;;
44139;SDS011;29803;51.048;4.686;2023-06-14T12:12:23;9.43;;;3.13;;
44139;SDS011;29803;51.048;4.686;2023-06-14T12:14:55;6.25;;;2.95;;
44139;SDS011;29803;51.048;4.686;2023-06-14T12:17:26;7.82;;;3.10;;
44139;SDS011;29803;51.048;4.686;2023-06-14T12:22:52;11.20;;;3.25;;
44139;SDS011;29803;51.048;4.686;2023-06-14T12:25:26;7.25;;;3.28;;
44139;SDS011;29803;51.048;4.686;2023-06-14T12:27:59;5.70;;;3.15;;
44139;SDS011;29803;51.048;4.686;2023-06-14T12:30:35;8.73;;;3.20;;
44139;SDS011;29803;51.048;4.686;2023-06-14T12:33:07;5.28;;;3.17;;
44139;SDS011;29803;51.048;4.686;2023-06-14T12:35:37;3.15;;;2.58;;
44139;SDS011;29803;51.048;4.686;2023-06-14T12:38:08;5.43;;;2.40;;
44139;SDS011;29803;51.048;4.686;2023-06-14T12:40:38;9.52;;;2.58;;
44139;SDS011;29803;51.048;4.686;2023-06-14T12:43:09;4.13;;;2.30;;
44139;SDS011;29803;51.048;4.686;2023-06-14T12:45:39;9.63;;;2.65;;
44139;SDS011;29803;51.048;4.686;2023-06-14T12:48:10;5.85;;;2.28;;
44139;SDS011;29803;51.048;4.686;2023-06-14T12:50:41;5.72;;;2.42;;
44139;SDS011;29803;51.048;4.686;2023-06-14T12:53:11;4.05;;;2.13;;
44139;SDS011;29803;51.048;4.686;2023-06-14T12:55:42;4.00;;;1.98;;
44139;SDS011;29803;51.048;4.686;2023-06-14T12:58:12;4.57;;;2.08;;
44139;SDS011;29803;51.048;4.686;2023-06-14T13:00:44;3.53;;;2.30;;
44139;SDS011;29803;51.048;4.686;2023-06-14T13:03:14;4.70;;;1.85;;
44139;SDS011;29803;51.048;4.686;2023-06-14T13:05:45;7.53;;;1.67;;
44139;SDS011;29803;51.048;4.686;2023-06-14T13:08:15;3.53;;;1.90;;
44139;SDS011;29803;51.048;4.686;2023-06-14T13:10:46;2.72;;;1.55;;
44139;SDS011;29803;51.048;4.686;2023-06-14T13:13:16;3.30;;;1.70;;
44139;SDS011;29803;51.048;4.686;2023-06-14T13:15:47;3.22;;;1.90;;
44139;SDS011;29803;51.048;4.686;2023-06-14T13:18:19;4.03;;;1.80;;
44139;SDS011;29803;51.048;4.686;2023-06-14T13:20:50;4.90;;;1.80;;
44139;SDS011;29803;51.048;4.686;2023-06-14T13:23:20;2.72;;;1.63;;
44139;SDS011;29803;51.048;4.686;2023-06-14T13:25:51;2.70;;;1.60;;
44139;SDS011;29803;51.048;4.686;2023-06-14T13:28:21;5.35;;;1.63;;
44139;SDS011;29803;51.048;4.686;2023-06-14T13:30:52;3.17;;;1.42;;
44139;SDS011;29803;51.048;4.686;2023-06-14T13:33:22;6.30;;;1.40;;
44139;SDS011;29803;51.048;4.686;2023-06-14T13:35:54;4.63;;;1.80;;
44139;SDS011;29803;51.048;4.686;2023-06-14T13:38:25;2.20;;;1.60;;
44139;SDS011;29803;51.048;4.686;2023-06-14T13:40:55;6.28;;;1.63;;
44139;SDS011;29803;51.048;4.686;2023-06-14T13:43:26;5.20;;;1.90;;
44139;SDS011;29803;51.048;4.686;2023-06-14T13:45:56;3.83;;;1.90;;
44139;SDS011;29803;51.048;4.686;2023-06-14T13:48:27;6.88;;;1.90;;
44139;SDS011;29803;51.048;4.686;2023-06-14T13:50:59;6.47;;;1.98;;
44139;SDS011;29803;51.048;4.686;2023-06-14T13:53:30;7.07;;;1.98;;
44139;SDS011;29803;51.048;4.686;2023-06-14T13:56:01;5.45;;;1.65;;
44139;SDS011;29803;51.048;4.686;2023-06-14T13:58:32;3.38;;;1.73;;
44139;SDS011;29803;51.048;4.686;2023-06-14T14:01:03;3.67;;;1.83;;
44139;SDS011;29803;51.048;4.686;2023-06-14T14:03:33;3.38;;;2.00;;
44139;SDS011;29803;51.048;4.686;2023-06-14T14:06:04;4.78;;;2.08;;
44139;SDS011;29803;51.048;4.686;2023-06-14T14:08:36;4.22;;;2.08;;
44139;SDS011;29803;51.048;4.686;2023-06-14T14:11:06;3.38;;;1.85;;
44139;SDS011;29803;51.048;4.686;2023-06-14T14:13:38;5.97;;;2.10;;
44139;SDS011;29803;51.048;4.686;2023-06-14T14:16:09;5.28;;;2.28;;
44139;SDS011;29803;51.048;4.686;2023-06-14T14:18:41;6.28;;;1.95;;
44139;SDS011;29803;51.048;4.686;2023-06-14T14:21:12;4.95;;;2.40;;
44139;SDS011;29803;51.048;4.686;2023-06-14T14:23:43;3.92;;;1.85;;
44139;SDS011;29803;51.048;4.686;2023-06-14T14:26:15;4.95;;;2.45;;
44139;SDS011;29803;51.048;4.686;2023-06-14T14:28:46;7.00;;;1.83;;
44139;SDS011;29803;51.048;4.686;2023-06-14T14:31:16;5.38;;;2.22;;
44139;SDS011;29803;51.048;4.686;2023-06-14T14:33:47;4.22;;;2.08;;
44139;SDS011;29803;51.048;4.686;2023-06-14T14:36:17;7.60;;;2.30;;
44139;SDS011;29803;51.048;4.686;2023-06-14T14:38:48;5.22;;;1.90;;
44139;SDS011;29803;51.048;4.686;2023-06-14T14:41:18;4.22;;;2.00;;
44139;SDS011;29803;51.048;4.686;2023-06-14T14:43:48;4.18;;;2.00;;
44139;SDS011;29803;51.048;4.686;2023-06-14T14:46:19;5.18;;;2.38;;
44139;SDS011;29803;51.048;4.686;2023-06-14T14:48:50;4.47;;;1.75;;
44139;SDS011;29803;51.048;4.686;2023-06-14T14:51:21;4.70;;;2.20;;
44139;SDS011;29803;51.048;4.686;2023-06-14T14:53:52;7.32;;;2.00;;
44139;SDS011;29803;51.048;4.686;2023-06-14T14:56:22;6.13;;;2.55;;
44139;SDS011;29803;51.048;4.686;2023-06-14T14:58:53;2.40;;;1.80;;
44139;SDS011;29803;51.048;4.686;2023-06-14T15:01:24;5.57;;;1.73;;
44139;SDS011;29803;51.048;4.686;2023-06-14T15:03:54;4.97;;;2.30;;
44139;SDS011;29803;51.048;4.686;2023-06-14T15:06:25;3.00;;;1.88;;
44139;SDS011;29803;51.048;4.686;2023-06-14T15:08:55;2.67;;;1.83;;
44139;SDS011;29803;51.048;4.686;2023-06-14T15:11:27;6.47;;;1.80;;
44139;SDS011;29803;51.048;4.686;2023-06-14T15:13:57;5.32;;;1.75;;
44139;SDS011;29803;51.048;4.686;2023-06-14T15:16:28;4.88;;;1.90;;
44139;SDS011;29803;51.048;4.686;2023-06-14T15:18:58;3.85;;;1.60;;
44139;SDS011;29803;51.048;4.686;2023-06-14T15:21:29;4.68;;;2.20;;
44139;SDS011;29803;51.048;4.686;2023-06-14T15:23:59;6.43;;;2.10;;
44139;SDS011;29803;51.048;4.686;2023-06-14T15:26:30;6.35;;;1.95;;
44139;SDS011;29803;51.048;4.686;2023-06-14T15:29:00;5.90;;;1.92;;
44139;SDS011;29803;51.048;4.686;2023-06-14T15:31:31;2.90;;;1.77;;
44139;SDS011;29803;51.048;4.686;2023-06-14T15:34:01;5.13;;;1.70;;
44139;SDS011;29803;51.048;4.686;2023-06-14T15:36:32;6.95;;;2.08;;
44139;SDS011;29803;51.048;4.686;2023-06-14T15:39:02;5.82;;;2.10;;
44139;SDS011;29803;51.048;4.686;2023-06-14T15:41:34;7.28;;;1.80;;